Time;durP1;ratioP1;P1;durP2;ratioP2;P2;SDS_P1;SDS_P2;PMS_P1;PMS_P2;Temp;Humidity;BMP_temperature;BMP_pressure;BME280_temperature;BME280_humidity;BME280_pressure;Samples;Min_cycle;Max_cycle;Signal;HPM_P1;HPM_P2
2022/12/06 00:01:43;;;;;;;8.83;5.07;;;7.70;99.90;;;;;;7394460;19;20641;-81
2022/12/06 00:04:11;;;;;;;8.57;5.47;;;7.90;99.90;;;;;;7391724;19;20203;-81
2022/12/06 00:06:50;;;;;;;7.93;5.13;;;7.90;99.90;;;;;;7395759;19;20134;-83
2022/12/06 00:09:27;;;;;;;8.30;5.40;;;7.90;99.90;;;;;;7395164;19;20138;-83
2022/12/06 00:11:54;;;;;;;7.43;5.13;;;7.90;99.90;;;;;;7393205;19;20154;-82
2022/12/06 00:14:21;;;;;;;6.67;4.23;;;7.90;99.90;;;;;;7394946;19;20515;-84
2022/12/06 00:16:47;;;;;;;7.80;4.57;;;7.90;99.90;;;;;;7395590;19;20592;-84
2022/12/06 00:19:18;;;;;;;6.93;4.27;;;8.00;99.90;;;;;;7393332;19;20644;-79
2022/12/06 00:21:46;;;;;;;6.10;4.67;;;7.90;99.90;;;;;;7391860;19;20151;-83
2022/12/06 00:24:14;;;;;;;8.07;4.97;;;7.90;99.90;;;;;;7393090;19;20269;-83
2022/12/06 00:26:43;;;;;;;6.03;4.83;;;7.90;99.90;;;;;;7391760;19;20598;-82
2022/12/06 00:29:23;;;;;;;6.03;4.27;;;8.00;99.90;;;;;;7392626;19;20131;-82
2022/12/06 00:31:49;;;;;;;8.17;4.30;;;8.00;99.90;;;;;;7391628;19;20166;-82
2022/12/06 00:34:15;;;;;;;5.60;3.70;;;7.90;99.90;;;;;;7393523;19;20146;-81
2022/12/06 00:36:41;;;;;;;4.93;3.63;;;7.90;99.90;;;;;;7394463;19;20131;-82
2022/12/06 00:39:10;;;;;;;7.20;4.13;;;7.90;99.90;;;;;;7396134;19;20202;-82
2022/12/06 00:41:36;;;;;;;5.20;3.93;;;8.00;99.90;;;;;;7392825;19;20175;-82
2022/12/06 00:44:02;;;;;;;5.97;3.80;;;7.90;99.90;;;;;;7391636;19;20154;-82
2022/12/06 00:46:29;;;;;;;4.93;3.50;;;7.90;99.90;;;;;;7392797;19;20149;-83
2022/12/06 00:48:56;;;;;;;6.97;4.50;;;7.90;99.90;;;;;;7391670;19;20571;-82
2022/12/06 00:51:24;;;;;;;6.70;4.07;;;7.90;99.90;;;;;;7392027;19;20154;-81
2022/12/06 00:53:50;;;;;;;5.87;4.03;;;7.90;99.90;;;;;;7392149;19;20146;-83
2022/12/06 00:56:17;;;;;;;5.03;3.80;;;7.90;99.90;;;;;;7390966;19;20802;-82
2022/12/06 00:58:43;;;;;;;6.53;3.67;;;7.90;99.90;;;;;;7394223;19;20239;-82
2022/12/06 01:01:10;;;;;;;8.17;5.33;;;7.80;99.90;;;;;;7391297;19;20577;-83
2022/12/06 01:03:36;;;;;;;7.30;5.23;;;7.70;99.90;;;;;;7392822;19;20138;-82
2022/12/06 01:06:05;;;;;;;6.80;4.50;;;7.20;99.90;;;;;;7392337;19;20166;-82
2022/12/06 01:08:32;;;;;;;6.43;4.30;;;7.10;99.90;;;;;;7395411;19;20162;-83
2022/12/06 01:10:58;;;;;;;6.70;4.77;;;7.20;99.90;;;;;;7393022;19;20151;-83
2022/12/06 01:13:23;;;;;;;5.53;3.97;;;7.50;99.90;;;;;;7395844;19;20239;-83
2022/12/06 01:15:49;;;;;;;7.60;4.23;;;7.60;99.90;;;;;;7401045;19;20469;-81
2022/12/06 01:18:15;;;;;;;6.90;4.57;;;7.60;99.90;;;;;;7402779;19;20134;-80
2022/12/06 01:20:41;;;;;;;9.47;5.07;;;7.60;99.90;;;;;;7402363;19;20595;-82
2022/12/06 01:23:07;;;;;;;8.73;6.10;;;7.80;99.90;;;;;;7400608;19;20155;-83
2022/12/06 01:25:32;;;;;;;10.73;5.70;;;7.70;99.90;;;;;;7400909;19;20149;-80
2022/12/06 01:27:58;;;;;;;10.47;6.03;;;7.70;99.90;;;;;;7399626;19;20536;-81
2022/12/06 01:30:25;;;;;;;8.67;5.97;;;7.80;99.90;;;;;;7400402;19;20483;-83
2022/12/06 01:32:50;;;;;;;8.53;5.43;;;7.70;99.90;;;;;;7400607;19;20139;-83
2022/12/06 01:35:16;;;;;;;9.07;6.30;;;7.70;99.90;;;;;;7399500;19;20142;-83
2022/12/06 01:37:42;;;;;;;12.00;7.07;;;7.60;99.90;;;;;;7400025;19;20150;-81
2022/12/06 01:40:10;;;;;;;12.40;7.50;;;7.70;99.90;;;;;;7399325;19;20146;-83
2022/12/06 01:42:36;;;;;;;12.13;7.13;;;7.70;99.90;;;;;;7399829;19;20135;-81
2022/12/06 01:45:03;;;;;;;12.23;7.03;;;7.70;99.90;;;;;;7397459;19;20763;-82
2022/12/06 01:47:33;;;;;;;11.37;7.37;;;7.70;99.90;;;;;;7399702;19;20202;-82
2022/12/06 01:50:13;;;;;;;8.53;6.33;;;7.70;99.90;;;;;;7401286;19;20139;-81
2022/12/06 01:52:52;;;;;;;11.70;7.37;;;7.70;99.90;;;;;;7394849;19;20225;-81
2022/12/06 01:55:21;;;;;;;10.17;6.77;;;7.70;99.90;;;;;;7395265;19;20146;-81
2022/12/06 01:57:50;;;;;;;11.90;6.77;;;7.70;99.90;;;;;;7398296;19;20168;-83
2022/12/06 02:00:19;;;;;;;9.77;6.90;;;7.70;99.90;;;;;;7401467;19;20130;-81
2022/12/06 02:02:44;;;;;;;10.03;6.93;;;7.70;99.90;;;;;;7399763;19;20159;-80
2022/12/06 02:05:12;;;;;;;8.80;5.87;;;7.70;99.90;;;;;;7397685;19;20143;-81
2022/12/06 02:07:39;;;;;;;9.13;6.00;;;7.60;99.90;;;;;;7397851;19;20587;-82
2022/12/06 02:10:05;;;;;;;12.47;6.30;;;7.60;99.90;;;;;;7396737;19;20152;-81
2022/12/06 02:12:31;;;;;;;9.07;6.33;;;7.20;99.90;;;;;;7396543;19;20143;-81
2022/12/06 02:14:58;;;;;;;11.87;7.10;;;7.30;99.90;;;;;;7399569;19;20611;-81
2022/12/06 02:18:02;;;;;;;9.33;7.00;;;7.50;99.90;;;;;;7396609;19;20135;-82
2022/12/06 02:20:33;;;;;;;8.53;5.80;;;7.60;99.90;;;;;;7397767;19;20146;-82
2022/12/06 02:23:20;;;;;;;11.13;6.67;;;7.50;99.90;;;;;;7400516;19;20139;-82
2022/12/06 02:26:07;;;;;;;10.03;6.57;;;6.90;99.90;;;;;;7398322;19;20154;-81
2022/12/06 02:28:52;;;;;;;10.93;6.20;;;6.70;99.90;;;;;;7397532;19;20154;-79
2022/12/06 02:31:52;;;;;;;9.23;6.57;;;6.60;99.90;;;;;;7397635;19;20135;-82
2022/12/06 02:34:34;;;;;;;9.90;6.13;;;6.80;99.90;;;;;;7397894;19;20135;-81
2022/12/06 02:37:10;;;;;;;9.20;6.03;;;7.10;99.90;;;;;;7400055;19;20480;-83
2022/12/06 02:39:58;;;;;;;11.27;6.40;;;7.40;99.90;;;;;;7398963;19;20172;-82
2022/12/06 02:42:30;;;;;;;8.83;6.33;;;7.40;99.90;;;;;;7399266;19;20131;-83
2022/12/06 02:45:03;;;;;;;9.03;6.47;;;7.40;99.90;;;;;;7394778;19;20170;-83
2022/12/06 02:47:35;;;;;;;7.93;6.00;;;7.50;99.90;;;;;;7398237;19;20221;-82
2022/12/06 02:50:05;;;;;;;9.90;5.90;;;7.50;99.90;;;;;;7398837;19;20143;-82
2022/12/06 02:52:31;;;;;;;8.40;6.07;;;7.50;99.90;;;;;;7394195;19;20841;-81
2022/12/06 02:55:00;;;;;;;9.80;6.53;;;6.90;99.90;;;;;;7396178;19;20174;-81
2022/12/06 02:57:41;;;;;;;11.50;6.67;;;7.00;99.90;;;;;;7396295;19;20146;-81
2022/12/06 03:00:29;;;;;;;7.70;5.20;;;7.20;99.90;;;;;;7392237;19;20138;-80
2022/12/06 03:03:07;;;;;;;10.00;6.33;;;7.20;99.90;;;;;;7396161;19;20146;-81
2022/12/06 03:05:40;;;;;;;10.10;6.60;;;7.30;99.90;;;;;;7396428;19;20514;-81
2022/12/06 03:08:17;;;;;;;11.07;6.67;;;7.40;99.90;;;;;;7396965;19;20910;-81
2022/12/06 03:10:59;;;;;;;10.53;6.50;;;7.50;99.90;;;;;;7395069;19;20154;-83
2022/12/06 03:13:55;;;;;;;10.00;6.40;;;7.50;99.90;;;;;;7395681;19;20140;-81
2022/12/06 03:16:44;;;;;;;9.23;6.50;;;7.40;99.90;;;;;;7397659;19;20208;-81
2022/12/06 03:19:23;;;;;;;10.27;5.90;;;7.10;99.90;;;;;;7394432;19;20134;-82
2022/12/06 03:22:00;;;;;;;9.77;6.60;;;7.30;99.90;;;;;;7395206;19;20225;-82
2022/12/06 03:24:28;;;;;;;9.53;6.47;;;7.40;99.90;;;;;;7396910;19;20143;-82
2022/12/06 03:26:57;;;;;;;10.17;6.70;;;7.40;99.90;;;;;;7394190;19;20520;-81
2022/12/06 03:29:26;;;;;;;7.90;6.13;;;7.40;99.90;;;;;;7396431;19;20491;-81
2022/12/06 03:31:54;;;;;;;10.20;6.37;;;7.40;99.90;;;;;;7394544;19;20139;-81
2022/12/06 03:34:31;;;;;;;9.07;6.50;;;7.00;99.90;;;;;;7394797;19;20205;-82
2022/12/06 03:36:58;;;;;;;8.00;5.70;;;6.80;99.90;;;;;;7394576;19;20142;-80
2022/12/06 03:39:40;;;;;;;13.77;5.97;;;7.00;99.90;;;;;;7391511;19;20141;-80
2022/12/06 03:42:07;;;;;;;8.73;5.63;;;7.10;99.90;;;;;;7395288;19;20158;-81
2022/12/06 03:44:34;;;;;;;9.83;6.07;;;7.30;99.90;;;;;;7394199;19;20178;-81
2022/12/06 03:47:14;;;;;;;11.30;6.93;;;7.40;99.90;;;;;;7396029;19;20138;-81
2022/12/06 03:50:08;;;;;;;11.10;6.10;;;7.40;99.90;;;;;;7394943;19;20180;-81
2022/12/06 03:52:34;;;;;;;8.03;5.87;;;7.50;99.90;;;;;;7392870;19;20150;-82
2022/12/06 03:55:01;;;;;;;10.47;6.80;;;7.40;99.90;;;;;;7393809;19;20238;-82
2022/12/06 03:57:26;;;;;;;10.73;6.40;;;7.50;99.90;;;;;;7394323;19;20138;-82
2022/12/06 03:59:52;;;;;;;10.83;6.50;;;7.50;99.90;;;;;;7394934;19;20139;-81
2022/12/06 04:02:18;;;;;;;7.57;5.40;;;7.40;99.90;;;;;;7395938;19;20193;-80
2022/12/06 04:04:44;;;;;;;8.60;6.23;;;7.30;99.90;;;;;;7393447;19;20143;-79
2022/12/06 04:07:10;;;;;;;9.37;6.03;;;7.30;99.90;;;;;;7394193;19;20138;-80
2022/12/06 04:09:51;;;;;;;9.07;5.90;;;7.00;99.90;;;;;;7396428;19;20135;-81
2022/12/06 04:15:06;;;;;;;10.83;5.67;;;6.70;99.90;;;;;;7395752;19;20614;-82
2022/12/06 04:20:16;;;;;;;8.23;5.50;;;6.90;99.90;;;;;;7395429;19;20138;-82
2022/12/06 04:25:26;;;;;;;9.13;5.83;;;7.40;99.90;;;;;;7393085;19;20134;-84
2022/12/06 04:38:56;;;;;;;9.03;6.00;;;6.80;99.90;;;;;;7392499;19;20533;-82
2022/12/06 04:44:06;;;;;;;10.57;5.70;;;7.10;99.90;;;;;;7390393;19;20613;-83
2022/12/06 04:46:34;;;;;;;7.83;5.60;;;6.80;99.90;;;;;;7387869;19;20145;-81
2022/12/06 04:49:00;;;;;;;8.37;5.33;;;7.00;99.90;;;;;;7387439;19;20130;-81
2022/12/06 04:51:26;;;;;;;7.80;5.00;;;7.20;99.90;;;;;;7397459;19;20159;-82
2022/12/06 04:53:52;;;;;;;9.03;5.67;;;7.40;99.90;;;;;;7395182;19;20133;-83
2022/12/06 04:56:17;;;;;;;8.20;5.93;;;7.40;99.90;;;;;;7393202;19;20187;-83
2022/12/06 04:58:44;;;;;;;8.43;5.47;;;7.40;99.90;;;;;;7396780;19;20137;-82
2022/12/06 05:01:09;;;;;;;11.47;5.80;;;7.50;99.90;;;;;;7398266;19;20167;-82
2022/12/06 05:03:36;;;;;;;6.90;4.83;;;6.90;99.90;;;;;;7395819;19;20630;-82
2022/12/06 05:06:02;;;;;;;10.00;6.33;;;6.80;99.90;;;;;;7394852;19;20134;-81
2022/12/06 05:08:28;;;;;;;9.27;5.63;;;7.00;99.90;;;;;;7394454;19;20167;-81
2022/12/06 05:10:54;;;;;;;10.13;6.07;;;7.20;99.90;;;;;;7395733;19;20599;-82
2022/12/06 05:13:19;;;;;;;8.80;5.83;;;7.40;99.90;;;;;;7394978;19;20147;-83
2022/12/06 05:15:54;;;;;;;6.93;5.33;;;7.40;99.90;;;;;;7392298;19;20131;-81
2022/12/06 05:18:20;;;;;;;12.70;5.50;;;7.50;99.90;;;;;;7395044;19;20155;-83
2022/12/06 05:20:46;;;;;;;8.60;6.23;;;7.50;99.90;;;;;;7394440;19;20218;-78
2022/12/06 05:23:13;;;;;;;9.03;5.83;;;7.60;99.90;;;;;;7395018;19;20159;-81
2022/12/06 05:25:39;;;;;;;8.70;5.60;;;7.60;99.90;;;;;;7393992;19;20181;-81
2022/12/06 05:28:05;;;;;;;10.47;6.57;;;7.30;99.90;;;;;;7396702;19;20134;-82
2022/12/06 05:30:55;;;;;;;8.97;5.33;;;7.10;99.90;;;;;;7396464;19;20491;-84
2022/12/06 05:36:50;;;;;;;7.43;5.10;;;7.60;99.90;;;;;;7395668;19;20160;-81
2022/12/06 05:39:19;;;;;;;10.03;5.70;;;7.50;99.90;;;;;;7397506;19;20134;-83
2022/12/06 05:42:25;;;;;;;8.63;5.53;;;7.50;99.90;;;;;;7396785;19;20150;-83
2022/12/06 05:44:51;;;;;;;6.90;5.23;;;7.60;99.90;;;;;;7251444;19;2798295;-83
2022/12/06 05:47:18;;;;;;;8.50;5.13;;;7.50;99.90;;;;;;7397452;19;20159;-82
2022/12/06 05:49:43;;;;;;;9.00;5.80;;;7.50;99.90;;;;;;7400399;19;20206;-82
2022/12/06 05:52:09;;;;;;;7.93;5.30;;;7.60;99.90;;;;;;7395441;19;20160;-82
2022/12/06 05:54:35;;;;;;;7.80;5.80;;;7.60;99.90;;;;;;7397790;19;20150;-82
2022/12/06 05:57:01;;;;;;;6.13;4.90;;;7.60;99.90;;;;;;7396012;19;20139;-82
2022/12/06 05:59:27;;;;;;;10.20;5.47;;;7.50;99.90;;;;;;7399684;19;20157;-80
2022/12/06 06:01:53;;;;;;;8.50;5.00;;;7.50;99.90;;;;;;7395485;19;20138;-82
2022/12/06 06:04:19;;;;;;;6.63;4.53;;;7.50;99.90;;;;;;7396524;19;20150;-83
2022/12/06 06:06:45;;;;;;;7.27;4.30;;;7.60;99.90;;;;;;7396758;19;20523;-81
2022/12/06 06:09:11;;;;;;;5.77;4.03;;;7.60;99.90;;;;;;7396809;19;20142;-83
2022/12/06 06:11:36;;;;;;;4.03;3.10;;;7.60;99.90;;;;;;7394456;19;20154;-83
2022/12/06 06:14:02;;;;;;;5.13;3.33;;;7.60;99.90;;;;;;7396637;19;20151;-82
2022/12/06 06:16:28;;;;;;;4.10;3.33;;;7.60;99.90;;;;;;7395356;19;20142;-82
2022/12/06 06:18:54;;;;;;;4.10;3.10;;;7.60;99.90;;;;;;7396022;19;20468;-84
2022/12/06 06:21:20;;;;;;;5.37;3.07;;;7.60;99.90;;;;;;7396583;19;20599;-84
2022/12/06 06:23:46;;;;;;;4.70;3.60;;;7.50;99.90;;;;;;7396697;19;20490;-82
2022/12/06 06:26:12;;;;;;;6.40;4.80;;;7.60;99.90;;;;;;7395993;19;20146;-82
2022/12/06 06:28:38;;;;;;;9.03;5.57;;;7.70;99.90;;;;;;7395080;19;20142;-82
2022/12/06 06:31:05;;;;;;;7.83;5.00;;;7.60;99.90;;;;;;7394518;19;20474;-84
2022/12/06 06:33:32;;;;;;;8.23;5.30;;;7.60;99.90;;;;;;7398323;19;20150;-81
2022/12/06 06:35:58;;;;;;;7.53;5.00;;;7.60;99.90;;;;;;7390437;19;20202;-82
2022/12/06 06:38:24;;;;;;;8.53;5.20;;;7.60;99.90;;;;;;7390129;19;20487;-81
2022/12/06 06:40:49;;;;;;;8.73;5.80;;;7.20;99.90;;;;;;7395289;19;20135;-80
2022/12/06 06:43:19;;;;;;;9.43;5.43;;;7.30;99.90;;;;;;7392865;19;20157;-81
2022/12/06 06:45:45;;;;;;;9.43;6.13;;;7.50;99.90;;;;;;7388541;19;20144;-82
2022/12/06 06:48:11;;;;;;;8.73;5.67;;;7.50;99.90;;;;;;7395101;19;20146;-81
2022/12/06 06:50:38;;;;;;;8.03;5.63;;;7.50;99.90;;;;;;7393720;19;20154;-82
2022/12/06 06:53:05;;;;;;;10.90;5.50;;;7.30;99.90;;;;;;7393661;19;20227;-82
2022/12/06 06:55:31;;;;;;;9.07;5.57;;;7.50;99.90;;;;;;7391546;19;20157;-81
2022/12/06 06:57:57;;;;;;;8.30;5.40;;;7.50;99.90;;;;;;7396367;19;20135;-82
2022/12/06 07:00:23;;;;;;;8.90;4.97;;;7.50;99.90;;;;;;7395364;19;20123;-82
2022/12/06 07:02:48;;;;;;;8.60;5.50;;;7.50;99.90;;;;;;7392681;19;20138;-81
2022/12/06 07:05:14;;;;;;;7.80;5.47;;;7.50;99.90;;;;;;7395087;19;20159;-81
2022/12/06 07:07:40;;;;;;;7.87;4.97;;;7.60;99.90;;;;;;7394753;19;20503;-82
2022/12/06 07:10:06;;;;;;;6.70;4.70;;;7.50;99.90;;;;;;7393955;19;20463;-82
2022/12/06 07:12:32;;;;;;;8.40;4.53;;;7.60;99.90;;;;;;7391908;19;20126;-83
2022/12/06 07:14:58;;;;;;;7.73;5.00;;;7.70;99.90;;;;;;7395405;19;20584;-84
2022/12/06 07:17:23;;;;;;;7.10;4.73;;;7.70;99.90;;;;;;7393462;19;20151;-81
2022/12/06 07:19:49;;;;;;;6.20;4.20;;;7.70;99.90;;;;;;7393470;19;20150;-84
2022/12/06 07:22:15;;;;;;;6.70;4.73;;;7.70;99.90;;;;;;7396560;19;20583;-84
2022/12/06 07:24:41;;;;;;;4.77;4.10;;;7.30;99.90;;;;;;7397270;19;20586;-82
2022/12/06 07:27:07;;;;;;;5.93;4.17;;;7.40;99.90;;;;;;7393955;19;20146;-82
2022/12/06 07:29:32;;;;;;;4.50;3.47;;;7.50;99.90;;;;;;7394934;19;21740;-82
2022/12/06 07:31:58;;;;;;;5.20;3.80;;;7.60;99.90;;;;;;7393096;19;20127;-81
2022/12/06 07:34:24;;;;;;;6.90;3.70;;;7.80;99.90;;;;;;7395758;19;20452;-82
2022/12/06 07:36:50;;;;;;;6.70;4.00;;;7.70;99.90;;;;;;7395034;19;20607;-83
2022/12/06 07:39:15;;;;;;;4.73;3.67;;;7.70;99.90;;;;;;7397511;19;20138;-83
2022/12/06 07:47:09;;;;;;;5.00;3.90;;;7.60;99.90;;;;;;7396232;19;20161;-82
2022/12/06 07:49:35;;;;;;;5.47;3.80;;;7.60;99.90;;;;;;7394790;19;20987;-83
2022/12/06 07:52:01;;;;;;;6.00;4.80;;;7.70;99.90;;;;;;7394438;19;20150;-80
2022/12/06 07:54:27;;;;;;;8.17;5.37;;;7.60;99.90;;;;;;7395831;19;20183;-82
2022/12/06 07:56:55;;;;;;;6.83;4.43;;;7.70;99.90;;;;;;7395527;19;20143;-83
2022/12/06 07:59:21;;;;;;;8.93;4.77;;;7.70;99.90;;;;;;7394291;19;20600;-81
2022/12/06 08:01:50;;;;;;;8.63;4.57;;;7.70;99.90;;;;;;7392279;19;20156;-82
2022/12/06 08:04:18;;;;;;;13.30;5.17;;;7.60;99.90;;;;;;7394891;19;20478;-84
2022/12/06 08:06:44;;;;;;;5.43;4.00;;;7.70;99.90;;;;;;7395961;19;20626;-88
2022/12/06 08:09:13;;;;;;;5.50;3.47;;;7.70;99.90;;;;;;7396773;19;20137;-84
2022/12/06 08:11:41;;;;;;;5.57;3.80;;;7.70;99.90;;;;;;7399754;19;20567;-85
2022/12/06 08:14:07;;;;;;;6.20;3.67;;;7.90;99.90;;;;;;7400032;19;20154;-84
2022/12/06 08:16:32;;;;;;;3.83;2.93;;;7.80;99.90;;;;;;7393337;19;20127;-84
2022/12/06 08:18:58;;;;;;;4.10;3.47;;;7.70;99.90;;;;;;7395060;19;20556;-88
2022/12/06 08:21:25;;;;;;;4.07;3.17;;;7.80;99.90;;;;;;7393893;19;20467;-87
2022/12/06 08:23:52;;;;;;;6.40;3.40;;;7.70;99.90;;;;;;7394836;19;20575;-83
2022/12/06 08:26:19;;;;;;;6.80;3.20;;;7.70;99.90;;;;;;7390151;19;20138;-83
2022/12/06 08:28:45;;;;;;;5.43;3.50;;;7.70;99.90;;;;;;7392274;19;20157;-81
2022/12/06 08:31:18;;;;;;;5.40;3.60;;;7.80;99.90;;;;;;7391073;19;20483;-87
2022/12/06 08:33:44;;;;;;;5.23;3.10;;;7.80;99.90;;;;;;7394165;19;20224;-76
2022/12/06 08:36:13;;;;;;;4.33;3.00;;;7.80;99.90;;;;;;7399858;19;20138;-81
2022/12/06 08:38:39;;;;;;;5.07;3.57;;;7.80;99.90;;;;;;7393945;19;20559;-85
2022/12/06 08:41:54;;;;;;;6.03;3.70;;;7.80;99.90;;;;;;7395852;19;20151;-84
2022/12/06 08:43:57;;;;;;;3.83;3.03;;;7.80;99.90;;;;;;7393461;19;20171;-85
2022/12/06 08:46:23;;;;;;;4.47;3.13;;;7.90;99.90;;;;;;7394016;19;20138;-82
2022/12/06 08:48:50;;;;;;;5.33;3.60;;;7.90;99.90;;;;;;7393197;19;20499;-81
2022/12/06 08:51:16;;;;;;;5.30;3.80;;;7.90;99.90;;;;;;7392488;19;20167;-81
2022/12/06 08:53:42;;;;;;;4.97;3.80;;;7.80;99.90;;;;;;7393751;19;20131;-80
2022/12/06 08:56:07;;;;;;;5.60;3.70;;;7.80;99.90;;;;;;7389945;19;20169;-82
2022/12/06 08:58:33;;;;;;;4.43;3.53;;;7.80;99.90;;;;;;7391557;19;20174;-79
2022/12/06 09:00:59;;;;;;;6.63;4.00;;;7.70;99.90;;;;;;7392005;19;20139;-80
2022/12/06 09:03:26;;;;;;;5.60;4.03;;;7.60;99.90;;;;;;7392713;19;20128;-82
2022/12/06 09:05:51;;;;;;;5.10;4.10;;;7.70;99.90;;;;;;7391561;19;20126;-81
2022/12/06 09:08:17;;;;;;;5.53;4.20;;;7.80;99.90;;;;;;7394234;19;20146;-81
2022/12/06 09:10:43;;;;;;;6.13;4.33;;;7.80;99.90;;;;;;7389123;19;20234;-79
2022/12/06 09:13:10;;;;;;;7.03;4.50;;;7.80;99.90;;;;;;7391080;19;20135;-80
2022/12/06 09:15:37;;;;;;;6.93;4.97;;;7.90;99.90;;;;;;7388551;19;20134;-80
2022/12/06 09:18:03;;;;;;;6.60;4.40;;;7.90;99.90;;;;;;7398022;19;20135;-79
2022/12/06 09:20:29;;;;;;;5.07;4.00;;;7.90;99.90;;;;;;7390863;19;20141;-79
2022/12/06 09:22:54;;;;;;;6.20;4.13;;;7.90;99.90;;;;;;7393405;19;20142;-80
2022/12/06 09:25:20;;;;;;;7.20;4.27;;;7.90;99.90;;;;;;7392832;19;20176;-82
2022/12/06 09:27:46;;;;;;;6.40;4.37;;;7.90;99.90;;;;;;7392022;19;20138;-81
2022/12/06 09:30:13;;;;;;;6.03;4.63;;;7.90;99.90;;;;;;7398086;19;20954;-82
2022/12/06 09:32:39;;;;;;;4.80;3.77;;;7.80;99.90;;;;;;7387853;19;20143;-79
2022/12/06 09:35:05;;;;;;;7.87;5.37;;;7.90;99.90;;;;;;7390713;19;20155;-81
2022/12/06 09:37:32;;;;;;;5.80;4.63;;;7.90;99.90;;;;;;7398395;19;20146;-82
2022/12/06 09:40:01;;;;;;;12.33;8.00;;;7.90;99.90;;;;;;7398695;19;20635;-81
2022/12/06 09:42:36;;;;;;;6.53;5.03;;;7.80;99.90;;;;;;7400828;19;20138;-81
2022/12/06 09:45:20;;;;;;;7.40;5.03;;;7.80;99.90;;;;;;7401029;19;20150;-82
2022/12/06 09:48:01;;;;;;;6.67;4.67;;;7.80;99.90;;;;;;7400065;19;20579;-80
2022/12/06 09:50:45;;;;;;;12.03;7.83;;;7.80;99.90;;;;;;7400068;19;20154;-82
2022/12/06 09:53:16;;;;;;;8.77;6.37;;;7.80;99.90;;;;;;7395637;19;20501;-81
2022/12/06 09:56:05;;;;;;;7.07;5.03;;;7.90;99.90;;;;;;7404137;19;20174;-82
2022/12/06 09:58:31;;;;;;;7.40;5.73;;;7.90;99.90;;;;;;7398974;19;20599;-81
2022/12/06 10:01:35;;;;;;;12.17;7.47;;;8.10;99.90;;;;;;7397521;19;20127;-81
2022/12/06 10:04:36;;;;;;;9.27;5.97;;;8.10;99.90;;;;;;7399301;19;20133;-80
2022/12/06 10:07:35;;;;;;;8.53;6.13;;;8.00;99.90;;;;;;7397457;19;20127;-80
2022/12/06 10:10:10;;;;;;;9.30;6.47;;;7.90;99.90;;;;;;7397264;19;20162;-81
2022/12/06 10:13:01;;;;;;;10.73;6.20;;;7.90;99.90;;;;;;7393934;19;20150;-81
2022/12/06 10:15:36;;;;;;;9.33;6.90;;;8.00;99.90;;;;;;7397143;19;20151;-80
2022/12/06 10:18:34;;;;;;;10.77;7.10;;;8.00;99.90;;;;;;7396116;19;20132;-80
2022/12/06 10:21:08;;;;;;;13.33;8.10;;;7.90;99.90;;;;;;7395678;19;20166;-81
2022/12/06 10:24:17;;;;;;;12.13;6.63;;;7.80;99.90;;;;;;7408020;19;20143;-82
2022/12/06 10:26:48;;;;;;;11.07;7.30;;;7.90;99.90;;;;;;7402950;19;20266;-81
2022/12/06 10:29:25;;;;;;;15.40;9.70;;;7.90;99.90;;;;;;7396337;19;20143;-82
2022/12/06 10:31:59;;;;;;;12.63;8.07;;;7.90;99.90;;;;;;7390200;19;20122;-80
2022/12/06 10:34:55;;;;;;;11.63;7.50;;;7.90;99.90;;;;;;7395536;19;20155;-81
2022/12/06 10:37:23;;;;;;;10.40;7.07;;;8.00;99.90;;;;;;7395049;19;20201;-83
2022/12/06 10:40:11;;;;;;;10.10;6.97;;;8.10;99.90;;;;;;7392583;19;20158;-81
2022/12/06 10:42:58;;;;;;;9.47;6.43;;;7.80;99.90;;;;;;7395674;19;20138;-81
2022/12/06 10:48:33;;;;;;;10.33;7.43;;;7.90;99.90;;;;;;7393289;19;20142;-79
2022/12/06 10:51:09;;;;;;;9.17;6.67;;;7.90;99.90;;;;;;7394109;19;20566;-79
2022/12/06 10:53:43;;;;;;;10.17;6.70;;;7.80;99.90;;;;;;7394509;19;20536;-81
2022/12/06 10:56:20;;;;;;;8.73;6.07;;;7.90;99.90;;;;;;7390395;19;20166;-79
2022/12/06 10:58:52;;;;;;;10.57;6.43;;;7.70;99.90;;;;;;7388979;19;20621;-78
2022/12/06 11:01:22;;;;;;;12.83;8.77;;;7.70;99.90;;;;;;7392251;19;20154;-79
2022/12/06 11:04:09;;;;;;;8.40;5.33;;;7.30;99.90;;;;;;7391140;19;20555;-78
2022/12/06 11:06:38;;;;;;;11.03;6.50;;;7.40;99.90;;;;;;7393060;19;20142;-76
2022/12/06 11:09:22;;;;;;;9.03;5.73;;;7.60;99.90;;;;;;7391487;19;20161;-77
2022/12/06 11:11:49;;;;;;;10.50;6.83;;;7.80;99.90;;;;;;7390498;19;20135;-76
2022/12/06 11:14:25;;;;;;;8.27;5.77;;;7.90;99.90;;;;;;7391039;19;20486;-77
2022/12/06 11:17:05;;;;;;;10.10;6.43;;;7.90;99.90;;;;;;7394065;19;20137;-77
2022/12/06 11:19:38;;;;;;;7.93;5.57;;;7.70;99.90;;;;;;7389653;19;20138;-78
2022/12/06 11:22:40;;;;;;;8.33;5.77;;;7.70;99.90;;;;;;7392900;19;20143;-80
2022/12/06 11:25:33;;;;;;;9.03;5.00;;;7.90;99.90;;;;;;7402736;19;20172;-79
2022/12/06 11:28:42;;;;;;;7.10;4.90;;;7.80;99.90;;;;;;7402122;19;20635;-81
2022/12/06 11:31:29;;;;;;;8.87;5.20;;;7.80;99.90;;;;;;7399001;19;20138;-81
2022/12/06 11:33:58;;;;;;;7.97;5.10;;;7.90;99.90;;;;;;7402012;19;20138;-81
2022/12/06 11:36:28;;;;;;;6.13;4.40;;;7.50;99.90;;;;;;7397123;19;20178;-79
2022/12/06 11:38:58;;;;;;;7.00;5.13;;;7.70;99.90;;;;;;7393945;19;20616;-80
2022/12/06 11:41:31;;;;;;;6.57;5.00;;;7.70;99.90;;;;;;7393380;19;20168;-82
2022/12/06 11:43:58;;;;;;;6.10;4.30;;;7.60;99.90;;;;;;7397334;19;20163;-81
2022/12/06 11:46:25;;;;;;;7.37;4.60;;;7.60;99.90;;;;;;7394956;19;20138;-81
2022/12/06 11:48:52;;;;;;;6.93;4.07;;;7.60;99.90;;;;;;7398521;19;20134;-84
2022/12/06 11:51:23;;;;;;;9.03;4.70;;;7.50;99.90;;;;;;7400369;19;20141;-78
2022/12/06 11:54:19;;;;;;;9.47;6.87;;;7.60;99.90;;;;;;7394059;19;20155;-80
2022/12/06 11:56:45;;;;;;;11.53;6.70;;;7.70;99.90;;;;;;7391327;19;20155;-80
2022/12/06 11:59:30;;;;;;;9.50;5.67;;;7.70;99.90;;;;;;7392360;19;20150;-80
2022/12/06 12:02:02;;;;;;;7.10;3.90;;;7.80;99.90;;;;;;7400165;19;20135;-79
2022/12/06 12:04:44;;;;;;;5.77;3.90;;;7.90;99.90;;;;;;7392567;19;20174;-80
2022/12/06 12:07:19;;;;;;;5.07;3.70;;;7.80;99.90;;;;;;7392042;19;20127;-81
2022/12/06 12:10:04;;;;;;;6.70;3.77;;;7.80;99.90;;;;;;7392741;19;20138;-81
2022/12/06 12:15:28;;;;;;;8.47;4.70;;;7.50;99.90;;;;;;7392458;19;20201;-80
2022/12/06 12:17:57;;;;;;;6.63;3.83;;;7.60;99.90;;;;;;7390997;19;20135;-81
2022/12/06 12:20:29;;;;;;;6.20;4.23;;;7.50;99.90;;;;;;7394706;19;20155;-81
2022/12/06 12:23:22;;;;;;;5.03;3.20;;;7.30;99.90;;;;;;7390506;19;20154;-80
2022/12/06 12:26:07;;;;;;;5.40;3.60;;;7.50;99.90;;;;;;7398295;19;20685;-81
2022/12/06 12:28:34;;;;;;;4.43;3.27;;;7.40;99.90;;;;;;7402005;19;20154;-81
2022/12/06 12:31:14;;;;;;;4.57;3.20;;;7.50;99.90;;;;;;7394267;19;20193;-82
2022/12/06 12:33:40;;;;;;;6.70;3.30;;;7.50;99.90;;;;;;7402088;19;20151;-82
2022/12/06 12:36:06;;;;;;;4.67;3.20;;;7.60;99.90;;;;;;7410118;19;20130;-81
2022/12/06 12:38:41;;;;;;;5.50;3.07;;;7.40;99.90;;;;;;7392247;19;20126;-82
2022/12/06 12:41:32;;;;;;;5.40;2.93;;;7.60;99.90;;;;;;7392196;19;20165;-81
2022/12/06 12:44:03;;;;;;;6.00;2.67;;;7.30;99.90;;;;;;7397856;19;20175;-79
2022/12/06 12:46:37;;;;;;;4.87;3.10;;;7.50;99.90;;;;;;7396772;19;20158;-81
2022/12/06 12:49:23;;;;;;;6.23;2.97;;;7.50;99.90;;;;;;7390399;19;20165;-81
2022/12/06 12:51:49;;;;;;;4.17;2.60;;;7.50;99.90;;;;;;7390507;19;20161;-80
2022/12/06 12:54:36;;;;;;;5.40;2.70;;;7.60;99.90;;;;;;7391285;19;20150;-81
2022/12/06 12:57:12;;;;;;;6.30;2.63;;;7.60;99.90;;;;;;7391935;19;20333;-82
2022/12/06 12:59:44;;;;;;;3.53;2.33;;;7.60;99.90;;;;;;7391048;19;20137;-81
2022/12/06 13:02:30;;;;;;;3.40;2.60;;;7.40;99.90;;;;;;7394731;19;20140;-82
2022/12/06 13:05:03;;;;;;;4.40;2.50;;;7.40;99.90;;;;;;7394088;19;20470;-82
2022/12/06 13:07:34;;;;;;;3.40;2.47;;;7.50;99.90;;;;;;7390246;19;20138;-81
2022/12/06 13:10:28;;;;;;;3.53;2.60;;;7.70;99.90;;;;;;7391598;19;20596;-83
2022/12/06 13:13:13;;;;;;;5.77;2.63;;;7.70;99.90;;;;;;7396951;19;20151;-82
2022/12/06 13:15:46;;;;;;;4.07;2.67;;;7.70;99.90;;;;;;7399597;19;20131;-81
2022/12/06 13:18:29;;;;;;;2.87;2.43;;;7.70;99.90;;;;;;7399035;19;20523;-81
2022/12/06 13:20:59;;;;;;;4.07;2.70;;;7.80;99.90;;;;;;7399062;19;20142;-81
2022/12/06 13:23:33;;;;;;;4.50;2.13;;;7.60;99.90;;;;;;7400386;19;20599;-82
2022/12/06 13:26:24;;;;;;;6.40;3.00;;;7.70;99.90;;;;;;7399304;19;20170;-82
2022/12/06 13:28:54;;;;;;;3.57;2.50;;;7.70;99.90;;;;;;7398930;19;20138;-81
2022/12/06 13:31:25;;;;;;;6.03;3.07;;;7.70;99.90;;;;;;7397122;19;20471;-82
2022/12/06 13:33:59;;;;;;;3.13;2.80;;;7.70;99.90;;;;;;7401319;19;20455;-82
2022/12/06 13:36:29;;;;;;;4.50;2.80;;;7.60;99.90;;;;;;7401109;19;20150;-82
2022/12/06 13:38:55;;;;;;;3.90;2.80;;;7.50;99.90;;;;;;7396323;19;20163;-82
2022/12/06 13:44:48;;;;;;;3.47;2.83;;;7.50;99.90;;;;;;7398370;19;20518;-82
2022/12/06 13:47:26;;;;;;;5.23;2.97;;;7.70;99.90;;;;;;7398403;19;20582;-83
2022/12/06 13:49:57;;;;;;;4.07;2.73;;;7.80;99.90;;;;;;7398925;19;20595;-83
2022/12/06 13:52:42;;;;;;;6.17;3.37;;;7.60;99.90;;;;;;7396053;19;20143;-81
2022/12/06 13:55:23;;;;;;;4.57;2.80;;;7.50;99.90;;;;;;7396730;19;20606;-83
2022/12/06 13:58:09;;;;;;;5.93;3.00;;;7.60;99.90;;;;;;7396941;19;20176;-83
2022/12/06 14:00:41;;;;;;;3.83;2.87;;;7.60;99.90;;;;;;7394546;19;20151;-82